sensor_id;sensor_type;location;lat;lon;timestamp;pressure;altitude;pressure_sealevel;temperature;humidity
14882;BME280;7533;51.278;12.588;2024-02-23T00:02:07;97240.22;;;26.64;52.37
14882;BME280;7533;51.278;12.588;2024-02-23T00:07:10;97242.34;;;26.56;52.59
14882;BME280;7533;51.278;12.588;2024-02-23T00:12:13;97222.75;;;26.47;52.49
14882;BME280;7533;51.278;12.588;2024-02-23T00:17:17;97223.38;;;26.43;52.71
14882;BME280;7533;51.278;12.588;2024-02-23T00:22:20;97238.63;;;26.30;52.83
14882;BME280;7533;51.278;12.588;2024-02-23T00:27:23;97237.59;;;26.25;52.94
14882;BME280;7533;51.278;12.588;2024-02-23T00:32:27;97245.50;;;26.20;52.81
14882;BME280;7533;51.278;12.588;2024-02-23T00:37:30;97250.72;;;26.15;53.04
14882;BME280;7533;51.278;12.588;2024-02-23T00:42:36;97279.94;;;26.06;53.18
14882;BME280;7533;51.278;12.588;2024-02-23T00:47:42;97284.75;;;26.04;53.25
14882;BME280;7533;51.278;12.588;2024-02-23T00:52:45;97304.13;;;26.07;53.39
14882;BME280;7533;51.278;12.588;2024-02-23T00:57:48;97329.16;;;26.09;53.20
14882;BME280;7533;51.278;12.588;2024-02-23T01:02:52;97325.19;;;26.05;53.70
14882;BME280;7533;51.278;12.588;2024-02-23T01:07:55;97325.56;;;26.09;53.65
14882;BME280;7533;51.278;12.588;2024-02-23T01:12:58;97316.81;;;26.14;53.66
14882;BME280;7533;51.278;12.588;2024-02-23T01:18:03;97374.78;;;26.19;53.30
14882;BME280;7533;51.278;12.588;2024-02-23T01:23:07;97397.13;;;26.21;53.43
14882;BME280;7533;51.278;12.588;2024-02-23T01:28:10;97421.31;;;26.23;53.34
14882;BME280;7533;51.278;12.588;2024-02-23T01:33:14;97440.06;;;26.24;53.12
14882;BME280;7533;51.278;12.588;2024-02-23T01:38:17;97445.50;;;26.24;52.74
14882;BME280;7533;51.278;12.588;2024-02-23T01:43:22;97466.56;;;26.22;52.98
14882;BME280;7533;51.278;12.588;2024-02-23T01:48:27;97482.63;;;26.30;52.66
14882;BME280;7533;51.278;12.588;2024-02-23T01:53:30;97488.06;;;26.30;52.72
14882;BME280;7533;51.278;12.588;2024-02-23T01:58:35;97493.28;;;26.38;52.31
14882;BME280;7533;51.278;12.588;2024-02-23T02:03:39;97511.84;;;26.35;52.30
14882;BME280;7533;51.278;12.588;2024-02-23T02:08:42;97508.75;;;26.38;52.27
14882;BME280;7533;51.278;12.588;2024-02-23T02:13:45;97526.47;;;26.41;51.53
14882;BME280;7533;51.278;12.588;2024-02-23T02:18:49;97526.72;;;26.46;51.82
14882;BME280;7533;51.278;12.588;2024-02-23T02:23:52;97538.16;;;26.41;51.97
14882;BME280;7533;51.278;12.588;2024-02-23T02:28:55;97560.91;;;26.47;51.70
14882;BME280;7533;51.278;12.588;2024-02-23T02:33:59;97563.47;;;26.55;51.44
14882;BME280;7533;51.278;12.588;2024-02-23T02:39:02;97577.66;;;26.57;51.34
14882;BME280;7533;51.278;12.588;2024-02-23T02:44:09;97582.63;;;26.53;51.57
14882;BME280;7533;51.278;12.588;2024-02-23T02:49:13;97591.81;;;26.59;51.22
14882;BME280;7533;51.278;12.588;2024-02-23T02:54:16;97615.00;;;26.61;51.37
14882;BME280;7533;51.278;12.588;2024-02-23T02:59:20;97621.28;;;26.62;51.23
14882;BME280;7533;51.278;12.588;2024-02-23T03:04:26;97630.28;;;26.82;51.07
14882;BME280;7533;51.278;12.588;2024-02-23T03:09:29;97643.00;;;26.69;50.94
14882;BME280;7533;51.278;12.588;2024-02-23T03:14:32;97649.50;;;26.81;50.82
14882;BME280;7533;51.278;12.588;2024-02-23T03:19:40;97657.00;;;26.79;50.44
14882;BME280;7533;51.278;12.588;2024-02-23T03:24:53;97673.94;;;26.87;50.53
14882;BME280;7533;51.278;12.588;2024-02-23T03:30:00;97689.81;;;26.90;50.82
14882;BME280;7533;51.278;12.588;2024-02-23T03:35:05;97718.59;;;26.85;50.49
14882;BME280;7533;51.278;12.588;2024-02-23T03:40:09;97729.03;;;26.88;50.54
14882;BME280;7533;51.278;12.588;2024-02-23T03:45:12;97729.47;;;26.92;50.30
14882;BME280;7533;51.278;12.588;2024-02-23T03:50:16;97734.28;;;26.89;50.41
14882;BME280;7533;51.278;12.588;2024-02-23T03:55:19;97751.03;;;27.00;50.36
14882;BME280;7533;51.278;12.588;2024-02-23T04:00:22;97768.06;;;26.87;50.23
14882;BME280;7533;51.278;12.588;2024-02-23T04:05:26;97779.25;;;27.05;50.02
14882;BME280;7533;51.278;12.588;2024-02-23T04:10:29;97795.75;;;27.10;49.96
14882;BME280;7533;51.278;12.588;2024-02-23T04:15:32;97802.91;;;27.11;50.18
14882;BME280;7533;51.278;12.588;2024-02-23T04:20:36;97827.13;;;27.20;50.13
14882;BME280;7533;51.278;12.588;2024-02-23T04:25:39;97821.47;;;27.14;50.12
14882;BME280;7533;51.278;12.588;2024-02-23T04:30:42;97833.16;;;27.15;50.31
14882;BME280;7533;51.278;12.588;2024-02-23T04:35:46;97838.88;;;26.92;50.25
14882;BME280;7533;51.278;12.588;2024-02-23T04:40:49;97853.38;;;27.06;50.05
14882;BME280;7533;51.278;12.588;2024-02-23T04:45:52;97858.56;;;27.01;50.09
14882;BME280;7533;51.278;12.588;2024-02-23T04:50:56;97870.22;;;26.95;50.11
14882;BME280;7533;51.278;12.588;2024-02-23T04:55:59;97884.59;;;26.88;49.99
14882;BME280;7533;51.278;12.588;2024-02-23T05:01:02;97903.13;;;26.78;50.19
14882;BME280;7533;51.278;12.588;2024-02-23T05:06:06;97917.47;;;26.72;50.19
14882;BME280;7533;51.278;12.588;2024-02-23T05:11:09;97922.00;;;26.65;50.55
14882;BME280;7533;51.278;12.588;2024-02-23T05:16:13;97913.38;;;26.55;50.89
14882;BME280;7533;51.278;12.588;2024-02-23T05:21:17;97903.69;;;26.46;50.80
14882;BME280;7533;51.278;12.588;2024-02-23T05:26:20;97916.72;;;26.35;51.11
14882;BME280;7533;51.278;12.588;2024-02-23T05:31:44;97923.13;;;26.28;51.07
14882;BME280;7533;51.278;12.588;2024-02-23T05:36:49;97936.81;;;26.20;51.24
14882;BME280;7533;51.278;12.588;2024-02-23T05:41:52;97964.63;;;26.07;50.89
14882;BME280;7533;51.278;12.588;2024-02-23T05:46:55;97980.09;;;25.92;50.90
14882;BME280;7533;51.278;12.588;2024-02-23T05:51:59;97997.94;;;25.86;51.24
14882;BME280;7533;51.278;12.588;2024-02-23T05:57:02;98008.13;;;25.69;51.21
14882;BME280;7533;51.278;12.588;2024-02-23T06:02:06;98019.28;;;25.59;50.83
14882;BME280;7533;51.278;12.588;2024-02-23T06:07:11;98030.38;;;25.50;51.24
14882;BME280;7533;51.278;12.588;2024-02-23T06:12:14;98053.16;;;25.41;51.46
14882;BME280;7533;51.278;12.588;2024-02-23T06:17:17;98048.69;;;25.33;51.43
14882;BME280;7533;51.278;12.588;2024-02-23T06:22:22;98050.63;;;25.24;51.68
14882;BME280;7533;51.278;12.588;2024-02-23T06:27:26;98045.31;;;25.16;52.14
14882;BME280;7533;51.278;12.588;2024-02-23T06:32:29;98062.47;;;25.09;52.01
14882;BME280;7533;51.278;12.588;2024-02-23T06:37:34;98066.03;;;25.01;52.58
14882;BME280;7533;51.278;12.588;2024-02-23T06:42:37;98066.97;;;24.93;52.77
14882;BME280;7533;51.278;12.588;2024-02-23T06:47:40;98075.81;;;24.87;52.87
14882;BME280;7533;51.278;12.588;2024-02-23T06:52:45;98072.13;;;24.80;52.77
14882;BME280;7533;51.278;12.588;2024-02-23T06:57:49;98087.22;;;24.74;52.90
14882;BME280;7533;51.278;12.588;2024-02-23T07:02:52;98066.16;;;24.70;52.99
14882;BME280;7533;51.278;12.588;2024-02-23T07:07:57;98070.22;;;24.66;53.16
14882;BME280;7533;51.278;12.588;2024-02-23T07:13:05;98102.03;;;24.64;53.33
14882;BME280;7533;51.278;12.588;2024-02-23T07:18:33;98123.19;;;24.60;53.43
14882;BME280;7533;51.278;12.588;2024-02-23T07:23:53;98114.75;;;24.55;53.58
14882;BME280;7533;51.278;12.588;2024-02-23T07:28:56;98141.31;;;24.51;53.52
14882;BME280;7533;51.278;12.588;2024-02-23T07:33:59;98132.88;;;24.46;53.63
14882;BME280;7533;51.278;12.588;2024-02-23T07:39:03;98139.50;;;24.44;53.57
14882;BME280;7533;51.278;12.588;2024-02-23T07:44:06;98168.75;;;24.40;53.62
14882;BME280;7533;51.278;12.588;2024-02-23T07:49:09;98179.94;;;24.37;53.87
14882;BME280;7533;51.278;12.588;2024-02-23T07:54:13;98188.69;;;24.39;53.43
14882;BME280;7533;51.278;12.588;2024-02-23T07:59:16;98191.75;;;24.36;51.95
14882;BME280;7533;51.278;12.588;2024-02-23T08:04:19;98205.63;;;24.25;51.45
14882;BME280;7533;51.278;12.588;2024-02-23T08:09:23;98230.88;;;23.11;40.83
14882;BME280;7533;51.278;12.588;2024-02-23T08:14:26;98240.88;;;22.68;39.47
14882;BME280;7533;51.278;12.588;2024-02-23T08:19:29;98223.78;;;23.02;41.00
14882;BME280;7533;51.278;12.588;2024-02-23T08:24:33;98208.47;;;23.43;44.38
14882;BME280;7533;51.278;12.588;2024-02-23T08:29:37;98206.41;;;23.45;45.50
14882;BME280;7533;51.278;12.588;2024-02-23T08:34:40;98215.69;;;23.51;46.13
14882;BME280;7533;51.278;12.588;2024-02-23T08:39:45;98218.06;;;23.54;46.74
14882;BME280;7533;51.278;12.588;2024-02-23T08:44:48;98220.09;;;23.60;47.43
14882;BME280;7533;51.278;12.588;2024-02-23T08:49:50;98221.31;;;23.66;47.65
14882;BME280;7533;51.278;12.588;2024-02-23T08:54:54;98234.81;;;23.66;48.08
14882;BME280;7533;51.278;12.588;2024-02-23T08:59:57;98248.13;;;23.67;48.31
14882;BME280;7533;51.278;12.588;2024-02-23T09:05:00;98260.81;;;23.75;48.52
14882;BME280;7533;51.278;12.588;2024-02-23T09:10:06;98276.00;;;23.76;48.98
14882;BME280;7533;51.278;12.588;2024-02-23T09:15:09;98276.16;;;23.74;49.23
14882;BME280;7533;51.278;12.588;2024-02-23T09:20:12;98280.56;;;23.75;49.49
14882;BME280;7533;51.278;12.588;2024-02-23T09:25:16;98269.94;;;23.74;49.54
14882;BME280;7533;51.278;12.588;2024-02-23T09:30:20;98270.06;;;23.72;49.78
14882;BME280;7533;51.278;12.588;2024-02-23T09:35:23;98259.44;;;23.71;50.08
14882;BME280;7533;51.278;12.588;2024-02-23T09:40:27;98256.75;;;23.71;50.28
14882;BME280;7533;51.278;12.588;2024-02-23T09:45:30;98246.59;;;23.73;50.42
14882;BME280;7533;51.278;12.588;2024-02-23T09:50:33;98257.41;;;23.73;50.48
14882;BME280;7533;51.278;12.588;2024-02-23T09:55:38;98242.03;;;23.73;50.57
14882;BME280;7533;51.278;12.588;2024-02-23T10:00:41;98245.75;;;23.72;50.55
14882;BME280;7533;51.278;12.588;2024-02-23T10:05:44;98259.44;;;23.79;50.51
14882;BME280;7533;51.278;12.588;2024-02-23T10:10:49;98263.31;;;23.77;50.55
14882;BME280;7533;51.278;12.588;2024-02-23T10:15:53;98270.91;;;23.73;50.45
14882;BME280;7533;51.278;12.588;2024-02-23T10:21:15;98286.13;;;23.74;50.59
14882;BME280;7533;51.278;12.588;2024-02-23T10:26:19;98289.81;;;23.73;50.68
14882;BME280;7533;51.278;12.588;2024-02-23T10:31:24;98279.19;;;23.71;50.75
14882;BME280;7533;51.278;12.588;2024-02-23T10:36:29;98290.00;;;23.71;50.95
14882;BME280;7533;51.278;12.588;2024-02-23T10:41:35;98299.78;;;23.72;51.15
14882;BME280;7533;51.278;12.588;2024-02-23T10:46:38;98297.44;;;23.69;51.19
14882;BME280;7533;51.278;12.588;2024-02-23T10:51:43;98308.06;;;23.71;51.35
14882;BME280;7533;51.278;12.588;2024-02-23T10:56:49;98307.88;;;23.72;51.33
14882;BME280;7533;51.278;12.588;2024-02-23T11:01:54;98313.28;;;23.72;51.35
14882;BME280;7533;51.278;12.588;2024-02-23T11:06:59;98322.59;;;23.70;51.73
14882;BME280;7533;51.278;12.588;2024-02-23T11:12:08;98329.84;;;23.69;51.71
14882;BME280;7533;51.278;12.588;2024-02-23T11:17:18;98335.25;;;23.69;52.10
14882;BME280;7533;51.278;12.588;2024-02-23T11:22:24;98343.34;;;23.69;52.24
14882;BME280;7533;51.278;12.588;2024-02-23T11:27:40;98340.66;;;23.69;52.42
14882;BME280;7533;51.278;12.588;2024-02-23T11:32:46;98359.56;;;23.69;52.47
14882;BME280;7533;51.278;12.588;2024-02-23T11:37:53;98354.47;;;23.66;52.89
14882;BME280;7533;51.278;12.588;2024-02-23T11:43:12;98356.50;;;23.72;53.27
14882;BME280;7533;51.278;12.588;2024-02-23T11:48:15;98346.53;;;23.73;53.62
14882;BME280;7533;51.278;12.588;2024-02-23T11:53:18;98343.34;;;23.78;54.19
14882;BME280;7533;51.278;12.588;2024-02-23T11:58:24;98349.25;;;23.81;54.73
14882;BME280;7533;51.278;12.588;2024-02-23T12:03:27;98342.50;;;23.77;55.15
14882;BME280;7533;51.278;12.588;2024-02-23T12:08:30;98339.97;;;23.75;55.25
14882;BME280;7533;51.278;12.588;2024-02-23T12:13:40;98341.00;;;23.74;55.42
14882;BME280;7533;51.278;12.588;2024-02-23T12:18:44;98346.38;;;23.74;55.60
14882;BME280;7533;51.278;12.588;2024-02-23T12:23:49;98340.63;;;23.78;55.39
14882;BME280;7533;51.278;12.588;2024-02-23T12:29:00;98342.50;;;23.77;55.41
14882;BME280;7533;51.278;12.588;2024-02-23T12:34:03;98329.16;;;23.75;55.68
14882;BME280;7533;51.278;12.588;2024-02-23T12:39:06;98335.41;;;23.76;55.53
14882;BME280;7533;51.278;12.588;2024-02-23T12:44:10;98347.38;;;23.73;55.70
14882;BME280;7533;51.278;12.588;2024-02-23T12:49:13;98338.28;;;23.74;55.70
14882;BME280;7533;51.278;12.588;2024-02-23T12:54:17;98329.50;;;23.72;55.66
14882;BME280;7533;51.278;12.588;2024-02-23T12:59:22;98330.50;;;23.71;55.79
14882;BME280;7533;51.278;12.588;2024-02-23T13:04:25;98338.44;;;23.73;55.65
14882;BME280;7533;51.278;12.588;2024-02-23T13:09:28;98340.28;;;23.72;55.79
14882;BME280;7533;51.278;12.588;2024-02-23T13:14:33;98343.00;;;23.72;55.74
14882;BME280;7533;51.278;12.588;2024-02-23T13:19:36;98338.44;;;23.73;55.81
14882;BME280;7533;51.278;12.588;2024-02-23T13:24:39;98337.44;;;23.74;56.03
14882;BME280;7533;51.278;12.588;2024-02-23T13:29:43;98335.72;;;23.73;55.88
14882;BME280;7533;51.278;12.588;2024-02-23T13:34:46;98327.63;;;23.73;55.99
14882;BME280;7533;51.278;12.588;2024-02-23T13:39:49;98331.53;;;23.70;55.68
14882;BME280;7533;51.278;12.588;2024-02-23T13:44:53;98328.66;;;23.72;55.67
14882;BME280;7533;51.278;12.588;2024-02-23T13:49:58;98324.44;;;23.69;55.95
14882;BME280;7533;51.278;12.588;2024-02-23T13:55:01;98331.84;;;23.67;55.93
14882;BME280;7533;51.278;12.588;2024-02-23T14:00:07;98332.03;;;23.66;55.64
14882;BME280;7533;51.278;12.588;2024-02-23T14:05:14;98342.16;;;23.64;55.54
14882;BME280;7533;51.278;12.588;2024-02-23T14:10:20;98342.31;;;23.62;55.59
14882;BME280;7533;51.278;12.588;2024-02-23T14:15:24;98337.06;;;23.61;55.68
14882;BME280;7533;51.278;12.588;2024-02-23T14:20:28;98348.88;;;23.60;55.73
14882;BME280;7533;51.278;12.588;2024-02-23T14:25:31;98352.97;;;23.64;55.67
14882;BME280;7533;51.278;12.588;2024-02-23T14:30:35;98352.63;;;23.83;55.26
14882;BME280;7533;51.278;12.588;2024-02-23T14:35:38;98370.19;;;23.95;55.33
14882;BME280;7533;51.278;12.588;2024-02-23T14:40:41;98364.97;;;24.02;55.50
14882;BME280;7533;51.278;12.588;2024-02-23T14:45:46;98359.03;;;24.07;55.51
14882;BME280;7533;51.278;12.588;2024-02-23T14:50:50;98365.28;;;24.07;55.13
14882;BME280;7533;51.278;12.588;2024-02-23T14:55:53;98378.97;;;24.06;54.92
14882;BME280;7533;51.278;12.588;2024-02-23T15:00:57;98370.03;;;24.05;54.47
14882;BME280;7533;51.278;12.588;2024-02-23T15:06:00;98377.47;;;24.03;54.37
14882;BME280;7533;51.278;12.588;2024-02-23T15:11:07;98385.56;;;24.03;54.44
14882;BME280;7533;51.278;12.588;2024-02-23T15:16:12;98377.47;;;24.03;54.21
14882;BME280;7533;51.278;12.588;2024-02-23T15:21:15;98372.91;;;24.04;53.97
14882;BME280;7533;51.278;12.588;2024-02-23T15:26:19;98379.31;;;24.02;54.13
14882;BME280;7533;51.278;12.588;2024-02-23T15:31:24;98384.88;;;24.01;54.03
14882;BME280;7533;51.278;12.588;2024-02-23T15:36:27;98366.31;;;23.98;54.10
14882;BME280;7533;51.278;12.588;2024-02-23T15:41:30;98347.41;;;23.98;54.20
14882;BME280;7533;51.278;12.588;2024-02-23T15:46:34;98336.78;;;23.96;54.16
14882;BME280;7533;51.278;12.588;2024-02-23T15:51:37;98338.78;;;23.94;54.01
14882;BME280;7533;51.278;12.588;2024-02-23T15:56:55;98361.22;;;23.95;53.98
14882;BME280;7533;51.278;12.588;2024-02-23T16:01:59;98371.19;;;23.94;54.09
14882;BME280;7533;51.278;12.588;2024-02-23T16:07:04;98376.97;;;23.91;54.17
14882;BME280;7533;51.278;12.588;2024-02-23T16:12:34;98392.47;;;23.89;54.18
14882;BME280;7533;51.278;12.588;2024-02-23T16:17:52;98390.63;;;23.90;54.20
14882;BME280;7533;51.278;12.588;2024-02-23T16:23:21;98408.84;;;23.96;54.21
14882;BME280;7533;51.278;12.588;2024-02-23T16:28:38;98422.22;;;23.97;54.13
14882;BME280;7533;51.278;12.588;2024-02-23T16:34:09;98421.53;;;23.95;54.32
14882;BME280;7533;51.278;12.588;2024-02-23T16:39:26;98407.88;;;23.97;54.29
14882;BME280;7533;51.278;12.588;2024-02-23T16:44:56;98398.22;;;23.94;54.43
14882;BME280;7533;51.278;12.588;2024-02-23T16:50:14;98391.81;;;23.87;54.65
14882;BME280;7533;51.278;12.588;2024-02-23T16:55:44;98374.25;;;23.83;55.00
14882;BME280;7533;51.278;12.588;2024-02-23T17:01:01;98367.66;;;23.78;55.28
14882;BME280;7533;51.278;12.588;2024-02-23T17:06:34;98385.19;;;23.73;55.17
14882;BME280;7533;51.278;12.588;2024-02-23T17:11:49;98376.44;;;23.71;55.38
14882;BME280;7533;51.278;12.588;2024-02-23T17:17:19;98373.06;;;23.69;55.35
14882;BME280;7533;51.278;12.588;2024-02-23T17:22:37;98383.84;;;23.69;55.46
14882;BME280;7533;51.278;12.588;2024-02-23T17:28:06;98379.47;;;23.68;55.75
14882;BME280;7533;51.278;12.588;2024-02-23T17:33:23;98402.06;;;23.67;55.95
14882;BME280;7533;51.278;12.588;2024-02-23T17:38:55;98399.53;;;23.66;56.11
14882;BME280;7533;51.278;12.588;2024-02-23T17:44:24;98393.47;;;23.64;55.83
14882;BME280;7533;51.278;12.588;2024-02-23T17:49:42;98388.22;;;23.62;55.99
14882;BME280;7533;51.278;12.588;2024-02-23T17:55:14;98398.31;;;23.60;55.97
14882;BME280;7533;51.278;12.588;2024-02-23T18:00:30;98394.78;;;23.60;55.87
14882;BME280;7533;51.278;12.588;2024-02-23T18:06:00;98418.25;;;23.59;56.06
14882;BME280;7533;51.278;12.588;2024-02-23T18:11:18;98417.56;;;23.57;56.10
14882;BME280;7533;51.278;12.588;2024-02-23T18:16:48;98422.28;;;23.55;56.08
14882;BME280;7533;51.278;12.588;2024-02-23T18:22:04;98418.72;;;23.55;56.14
14882;BME280;7533;51.278;12.588;2024-02-23T18:27:36;98422.44;;;23.54;56.32
14882;BME280;7533;51.278;12.588;2024-02-23T18:32:54;98421.59;;;23.53;56.24
14882;BME280;7533;51.278;12.588;2024-02-23T18:38:24;98411.97;;;23.50;56.45
14882;BME280;7533;51.278;12.588;2024-02-23T18:43:48;98386.81;;;23.50;56.36
14882;BME280;7533;51.278;12.588;2024-02-23T18:49:18;98384.28;;;23.48;56.45
14882;BME280;7533;51.278;12.588;2024-02-23T18:54:34;98384.47;;;23.47;56.56
14882;BME280;7533;51.278;12.588;2024-02-23T19:00:06;98386.31;;;23.46;56.62
14882;BME280;7533;51.278;12.588;2024-02-23T19:05:23;98404.19;;;23.47;56.61
14882;BME280;7533;51.278;12.588;2024-02-23T19:10:53;98403.50;;;23.45;56.82
14882;BME280;7533;51.278;12.588;2024-02-23T19:16:12;98407.22;;;23.44;57.00
14882;BME280;7533;51.278;12.588;2024-02-23T19:21:43;98396.28;;;23.46;56.93
14882;BME280;7533;51.278;12.588;2024-02-23T19:26:59;98378.38;;;23.45;56.99
14882;BME280;7533;51.278;12.588;2024-02-23T19:32:30;98378.53;;;23.43;57.03
14882;BME280;7533;51.278;12.588;2024-02-23T19:37:53;98393.91;;;23.43;56.87
14882;BME280;7533;51.278;12.588;2024-02-23T19:43:23;98412.31;;;23.47;56.73
14882;BME280;7533;51.278;12.588;2024-02-23T19:48:54;98430.69;;;23.44;56.73
14882;BME280;7533;51.278;12.588;2024-02-23T19:54:11;98435.41;;;23.42;56.75
14882;BME280;7533;51.278;12.588;2024-02-23T19:59:41;98444.53;;;23.41;56.89
14882;BME280;7533;51.278;12.588;2024-02-23T20:05:06;98440.97;;;23.40;56.76
14882;BME280;7533;51.278;12.588;2024-02-23T20:10:36;98435.72;;;23.39;56.82
14882;BME280;7533;51.278;12.588;2024-02-23T20:15:53;98417.00;;;23.37;56.74
14882;BME280;7533;51.278;12.588;2024-02-23T20:21:24;98418.84;;;23.37;56.78
14882;BME280;7533;51.278;12.588;2024-02-23T20:26:41;98414.28;;;23.37;56.78
14882;BME280;7533;51.278;12.588;2024-02-23T20:32:11;98400.97;;;23.36;56.74
14882;BME280;7533;51.278;12.588;2024-02-23T20:37:38;98397.25;;;23.37;56.74
14882;BME280;7533;51.278;12.588;2024-02-23T20:43:08;98407.38;;;23.35;56.71
14882;BME280;7533;51.278;12.588;2024-02-23T20:48:24;98418.19;;;23.35;56.71
14882;BME280;7533;51.278;12.588;2024-02-23T20:53:55;98419.16;;;23.34;56.74
14882;BME280;7533;51.278;12.588;2024-02-23T20:59:18;98421.03;;;23.33;56.63
14882;BME280;7533;51.278;12.588;2024-02-23T21:04:48;98432.84;;;23.32;56.65
14882;BME280;7533;51.278;12.588;2024-02-23T21:10:06;98447.16;;;23.33;56.70
14882;BME280;7533;51.278;12.588;2024-02-23T21:15:37;98450.03;;;23.31;56.63
14882;BME280;7533;51.278;12.588;2024-02-23T21:20:53;98447.50;;;23.30;56.58
14882;BME280;7533;51.278;12.588;2024-02-23T21:26:24;98453.06;;;23.28;56.53
14882;BME280;7533;51.278;12.588;2024-02-23T21:31:40;98452.91;;;23.30;56.49
14882;BME280;7533;51.278;12.588;2024-02-23T21:37:10;98448.72;;;23.35;56.37
14882;BME280;7533;51.278;12.588;2024-02-23T21:42:31;98445.50;;;23.32;56.67
14882;BME280;7533;51.278;12.588;2024-02-23T21:48:01;98442.13;;;23.30;56.93
14882;BME280;7533;51.278;12.588;2024-02-23T21:53:24;98440.41;;;23.29;56.90
14882;BME280;7533;51.278;12.588;2024-02-23T21:58:55;98435.00;;;23.29;57.15
14882;BME280;7533;51.278;12.588;2024-02-23T22:04:11;98429.59;;;23.29;57.02
14882;BME280;7533;51.278;12.588;2024-02-23T22:09:14;98431.31;;;23.30;57.11
14882;BME280;7533;51.278;12.588;2024-02-23T22:14:18;98435.19;;;23.27;57.17
14882;BME280;7533;51.278;12.588;2024-02-23T22:19:22;98435.91;;;23.03;57.66
14882;BME280;7533;51.278;12.588;2024-02-23T22:24:24;98426.56;;;22.89;57.94
14882;BME280;7533;51.278;12.588;2024-02-23T22:29:28;98424.81;;;22.80;57.74
14882;BME280;7533;51.278;12.588;2024-02-23T22:34:31;98417.19;;;22.76;57.76
14882;BME280;7533;51.278;12.588;2024-02-23T22:39:35;98423.91;;;22.71;57.94
14882;BME280;7533;51.278;12.588;2024-02-23T22:44:39;98429.63;;;22.68;58.11
14882;BME280;7533;51.278;12.588;2024-02-23T22:49:42;98434.00;;;22.69;58.27
14882;BME280;7533;51.278;12.588;2024-02-23T22:54:44;98417.50;;;22.73;58.23
14882;BME280;7533;51.278;12.588;2024-02-23T22:59:49;98414.59;;;22.66;58.45
14882;BME280;7533;51.278;12.588;2024-02-23T23:04:52;98409.22;;;22.66;58.47
14882;BME280;7533;51.278;12.588;2024-02-23T23:09:54;98407.84;;;22.62;58.59
14882;BME280;7533;51.278;12.588;2024-02-23T23:14:59;98415.06;;;22.61;58.63
14882;BME280;7533;51.278;12.588;2024-02-23T23:20:03;98424.34;;;22.59;58.85
14882;BME280;7533;51.278;12.588;2024-02-23T23:25:08;98426.19;;;22.58;58.91
14882;BME280;7533;51.278;12.588;2024-02-23T23:30:13;98426.34;;;22.57;58.98
14882;BME280;7533;51.278;12.588;2024-02-23T23:35:16;98430.91;;;22.56;58.98
14882;BME280;7533;51.278;12.588;2024-02-23T23:40:19;98428.22;;;22.56;58.97
14882;BME280;7533;51.278;12.588;2024-02-23T23:45:23;98423.81;;;22.55;59.13
14882;BME280;7533;51.278;12.588;2024-02-23T23:50:26;98424.81;;;22.54;59.07
14882;BME280;7533;51.278;12.588;2024-02-23T23:55:29;98429.34;;;22.54;59.22
